sensor_id;sensor_type;location;lat;lon;timestamp;P1;durP1;ratioP1;P2;durP2;ratioP2
10056;SDS011;5068;51.286;7.518;2022-12-18T00:00:38;6.28;;;3.08;;
10056;SDS011;5068;51.286;7.518;2022-12-18T00:02:13;6.40;;;2.65;;
10056;SDS011;5068;51.286;7.518;2022-12-18T00:03:47;6.13;;;2.60;;
10056;SDS011;5068;51.286;7.518;2022-12-18T00:05:20;4.63;;;2.30;;
10056;SDS011;5068;51.286;7.518;2022-12-18T00:06:54;5.80;;;2.70;;
10056;SDS011;5068;51.286;7.518;2022-12-18T00:08:26;7.40;;;1.92;;
10056;SDS011;5068;51.286;7.518;2022-12-18T00:10:00;4.63;;;1.92;;
10056;SDS011;5068;51.286;7.518;2022-12-18T00:11:33;4.78;;;1.85;;
10056;SDS011;5068;51.286;7.518;2022-12-18T00:13:07;4.78;;;1.80;;
10056;SDS011;5068;51.286;7.518;2022-12-18T00:14:42;4.40;;;1.70;;
10056;SDS011;5068;51.286;7.518;2022-12-18T00:16:16;4.82;;;1.70;;
10056;SDS011;5068;51.286;7.518;2022-12-18T00:17:52;3.08;;;1.27;;
10056;SDS011;5068;51.286;7.518;2022-12-18T00:19:25;4.60;;;1.63;;
10056;SDS011;5068;51.286;7.518;2022-12-18T00:20:59;4.47;;;1.65;;
10056;SDS011;5068;51.286;7.518;2022-12-18T00:22:32;3.42;;;1.30;;
10056;SDS011;5068;51.286;7.518;2022-12-18T00:24:05;3.97;;;1.38;;
10056;SDS011;5068;51.286;7.518;2022-12-18T00:25:39;3.30;;;1.35;;
10056;SDS011;5068;51.286;7.518;2022-12-18T00:27:12;5.25;;;1.50;;
10056;SDS011;5068;51.286;7.518;2022-12-18T00:28:46;3.35;;;1.63;;
10056;SDS011;5068;51.286;7.518;2022-12-18T00:30:21;4.55;;;1.77;;
10056;SDS011;5068;51.286;7.518;2022-12-18T00:31:54;6.07;;;1.40;;
10056;SDS011;5068;51.286;7.518;2022-12-18T00:33:28;3.28;;;1.33;;
10056;SDS011;5068;51.286;7.518;2022-12-18T00:35:00;4.15;;;1.45;;
10056;SDS011;5068;51.286;7.518;2022-12-18T00:36:35;3.67;;;1.45;;
10056;SDS011;5068;51.286;7.518;2022-12-18T00:38:07;1.83;;;0.88;;
10056;SDS011;5068;51.286;7.518;2022-12-18T00:39:40;3.47;;;1.15;;
10056;SDS011;5068;51.286;7.518;2022-12-18T00:41:14;4.10;;;1.83;;
10056;SDS011;5068;51.286;7.518;2022-12-18T00:43:08;4.10;;;1.30;;
10056;SDS011;5068;51.286;7.518;2022-12-18T00:44:41;3.58;;;1.42;;
10056;SDS011;5068;51.286;7.518;2022-12-18T00:46:16;6.45;;;1.50;;
10056;SDS011;5068;51.286;7.518;2022-12-18T00:47:48;2.75;;;1.10;;
10056;SDS011;5068;51.286;7.518;2022-12-18T00:49:21;3.30;;;1.30;;
10056;SDS011;5068;51.286;7.518;2022-12-18T00:50:55;5.65;;;1.45;;
10056;SDS011;5068;51.286;7.518;2022-12-18T00:52:28;2.92;;;1.58;;
10056;SDS011;5068;51.286;7.518;2022-12-18T00:54:02;3.38;;;1.30;;
10056;SDS011;5068;51.286;7.518;2022-12-18T00:55:34;3.72;;;1.25;;
10056;SDS011;5068;51.286;7.518;2022-12-18T00:57:09;3.58;;;1.40;;
10056;SDS011;5068;51.286;7.518;2022-12-18T00:58:43;4.05;;;1.30;;
10056;SDS011;5068;51.286;7.518;2022-12-18T01:00:16;3.42;;;1.40;;
10056;SDS011;5068;51.286;7.518;2022-12-18T01:01:51;5.57;;;1.63;;
10056;SDS011;5068;51.286;7.518;2022-12-18T01:03:25;3.97;;;1.55;;
10056;SDS011;5068;51.286;7.518;2022-12-18T01:04:57;3.38;;;1.40;;
10056;SDS011;5068;51.286;7.518;2022-12-18T01:06:31;2.47;;;1.02;;
10056;SDS011;5068;51.286;7.518;2022-12-18T01:08:04;5.13;;;1.02;;
10056;SDS011;5068;51.286;7.518;2022-12-18T01:09:37;4.43;;;1.60;;
10056;SDS011;5068;51.286;7.518;2022-12-18T01:11:10;3.33;;;1.25;;
10056;SDS011;5068;51.286;7.518;2022-12-18T01:12:52;2.47;;;0.90;;
10056;SDS011;5068;51.286;7.518;2022-12-18T01:14:24;3.42;;;1.35;;
10056;SDS011;5068;51.286;7.518;2022-12-18T01:15:57;4.30;;;1.45;;
10056;SDS011;5068;51.286;7.518;2022-12-18T01:17:31;4.13;;;1.40;;
10056;SDS011;5068;51.286;7.518;2022-12-18T01:19:05;3.22;;;1.20;;
10056;SDS011;5068;51.286;7.518;2022-12-18T01:20:38;3.08;;;1.40;;
10056;SDS011;5068;51.286;7.518;2022-12-18T01:22:10;3.90;;;1.20;;
10056;SDS011;5068;51.286;7.518;2022-12-18T01:23:43;3.38;;;1.40;;
10056;SDS011;5068;51.286;7.518;2022-12-18T01:25:16;3.45;;;1.20;;
10056;SDS011;5068;51.286;7.518;2022-12-18T01:26:50;3.92;;;1.05;;
10056;SDS011;5068;51.286;7.518;2022-12-18T01:28:23;2.50;;;1.20;;
10056;SDS011;5068;51.286;7.518;2022-12-18T01:29:56;3.50;;;1.33;;
10056;SDS011;5068;51.286;7.518;2022-12-18T01:31:30;6.43;;;1.17;;
10056;SDS011;5068;51.286;7.518;2022-12-18T01:33:07;2.40;;;1.05;;
10056;SDS011;5068;51.286;7.518;2022-12-18T01:34:40;3.20;;;1.00;;
10056;SDS011;5068;51.286;7.518;2022-12-18T01:36:17;3.22;;;1.08;;
10056;SDS011;5068;51.286;7.518;2022-12-18T01:37:53;2.63;;;1.17;;
10056;SDS011;5068;51.286;7.518;2022-12-18T01:39:27;2.80;;;1.02;;
10056;SDS011;5068;51.286;7.518;2022-12-18T01:41:01;2.00;;;1.10;;
10056;SDS011;5068;51.286;7.518;2022-12-18T01:42:34;3.25;;;1.20;;
10056;SDS011;5068;51.286;7.518;2022-12-18T01:46:24;2.47;;;1.33;;
10056;SDS011;5068;51.286;7.518;2022-12-18T01:48:00;2.13;;;1.05;;
10056;SDS011;5068;51.286;7.518;2022-12-18T01:49:39;4.55;;;1.50;;
10056;SDS011;5068;51.286;7.518;2022-12-18T01:51:11;2.55;;;1.10;;
10056;SDS011;5068;51.286;7.518;2022-12-18T01:52:46;2.97;;;1.23;;
10056;SDS011;5068;51.286;7.518;2022-12-18T01:54:22;4.40;;;1.55;;
10056;SDS011;5068;51.286;7.518;2022-12-18T01:55:56;3.35;;;1.05;;
10056;SDS011;5068;51.286;7.518;2022-12-18T01:57:31;3.22;;;1.67;;
10056;SDS011;5068;51.286;7.518;2022-12-18T01:59:04;2.60;;;1.00;;
10056;SDS011;5068;51.286;7.518;2022-12-18T02:00:42;2.22;;;1.00;;
10056;SDS011;5068;51.286;7.518;2022-12-18T02:02:15;2.95;;;1.02;;
10056;SDS011;5068;51.286;7.518;2022-12-18T02:03:50;3.38;;;1.10;;
10056;SDS011;5068;51.286;7.518;2022-12-18T02:05:29;3.17;;;1.30;;
10056;SDS011;5068;51.286;7.518;2022-12-18T02:07:17;4.30;;;1.15;;
10056;SDS011;5068;51.286;7.518;2022-12-18T02:09:07;2.67;;;0.98;;
10056;SDS011;5068;51.286;7.518;2022-12-18T02:10:48;2.65;;;1.02;;
10056;SDS011;5068;51.286;7.518;2022-12-18T02:12:39;3.95;;;1.20;;
10056;SDS011;5068;51.286;7.518;2022-12-18T02:14:22;3.05;;;1.23;;
10056;SDS011;5068;51.286;7.518;2022-12-18T02:16:13;1.75;;;1.00;;
10056;SDS011;5068;51.286;7.518;2022-12-18T02:17:57;2.17;;;0.88;;
10056;SDS011;5068;51.286;7.518;2022-12-18T02:19:47;2.53;;;1.08;;
10056;SDS011;5068;51.286;7.518;2022-12-18T02:21:48;2.22;;;0.90;;
10056;SDS011;5068;51.286;7.518;2022-12-18T02:23:38;3.38;;;1.50;;
10056;SDS011;5068;51.286;7.518;2022-12-18T02:25:26;2.58;;;1.10;;
10056;SDS011;5068;51.286;7.518;2022-12-18T02:27:32;2.90;;;0.95;;
10056;SDS011;5068;51.286;7.518;2022-12-18T02:29:10;2.58;;;1.23;;
10056;SDS011;5068;51.286;7.518;2022-12-18T02:30:49;4.22;;;1.27;;
10056;SDS011;5068;51.286;7.518;2022-12-18T02:32:28;3.88;;;1.60;;
10056;SDS011;5068;51.286;7.518;2022-12-18T02:34:09;3.72;;;1.48;;
10056;SDS011;5068;51.286;7.518;2022-12-18T02:35:45;5.00;;;1.38;;
10056;SDS011;5068;51.286;7.518;2022-12-18T02:37:21;3.40;;;1.23;;
10056;SDS011;5068;51.286;7.518;2022-12-18T02:38:56;4.00;;;1.52;;
10056;SDS011;5068;51.286;7.518;2022-12-18T02:42:05;2.78;;;0.93;;
10056;SDS011;5068;51.286;7.518;2022-12-18T02:43:40;2.42;;;1.08;;
10056;SDS011;5068;51.286;7.518;2022-12-18T02:45:20;4.43;;;1.20;;
10056;SDS011;5068;51.286;7.518;2022-12-18T02:46:55;3.10;;;1.10;;
10056;SDS011;5068;51.286;7.518;2022-12-18T02:48:29;3.20;;;1.20;;
10056;SDS011;5068;51.286;7.518;2022-12-18T02:50:10;3.22;;;1.13;;
10056;SDS011;5068;51.286;7.518;2022-12-18T02:52:01;3.30;;;1.30;;
10056;SDS011;5068;51.286;7.518;2022-12-18T02:53:43;3.40;;;1.25;;
10056;SDS011;5068;51.286;7.518;2022-12-18T02:55:26;2.72;;;1.13;;
10056;SDS011;5068;51.286;7.518;2022-12-18T02:57:23;3.60;;;1.30;;
10056;SDS011;5068;51.286;7.518;2022-12-18T02:59:07;2.65;;;1.10;;
10056;SDS011;5068;51.286;7.518;2022-12-18T03:00:55;2.60;;;0.85;;
10056;SDS011;5068;51.286;7.518;2022-12-18T03:02:37;4.55;;;1.30;;
10056;SDS011;5068;51.286;7.518;2022-12-18T03:04:18;4.13;;;1.40;;
10056;SDS011;5068;51.286;7.518;2022-12-18T03:06:00;4.18;;;1.25;;
10056;SDS011;5068;51.286;7.518;2022-12-18T03:09:19;4.55;;;1.42;;
10056;SDS011;5068;51.286;7.518;2022-12-18T03:10:59;3.13;;;1.38;;
10056;SDS011;5068;51.286;7.518;2022-12-18T03:12:40;4.28;;;1.33;;
10056;SDS011;5068;51.286;7.518;2022-12-18T03:14:19;2.85;;;1.23;;
10056;SDS011;5068;51.286;7.518;2022-12-18T03:15:55;2.70;;;1.13;;
10056;SDS011;5068;51.286;7.518;2022-12-18T03:17:33;3.75;;;1.17;;
10056;SDS011;5068;51.286;7.518;2022-12-18T03:19:08;3.70;;;1.23;;
10056;SDS011;5068;51.286;7.518;2022-12-18T03:22:26;2.10;;;0.98;;
10056;SDS011;5068;51.286;7.518;2022-12-18T03:24:03;5.50;;;1.27;;
10056;SDS011;5068;51.286;7.518;2022-12-18T03:25:41;3.83;;;1.50;;
10056;SDS011;5068;51.286;7.518;2022-12-18T03:27:19;3.47;;;1.25;;
10056;SDS011;5068;51.286;7.518;2022-12-18T03:29:02;3.65;;;1.05;;
10056;SDS011;5068;51.286;7.518;2022-12-18T03:30:41;2.83;;;1.20;;
10056;SDS011;5068;51.286;7.518;2022-12-18T03:32:20;3.05;;;0.98;;
10056;SDS011;5068;51.286;7.518;2022-12-18T03:34:03;4.90;;;1.30;;
10056;SDS011;5068;51.286;7.518;2022-12-18T03:35:47;2.67;;;1.10;;
10056;SDS011;5068;51.286;7.518;2022-12-18T03:37:22;2.33;;;1.10;;
10056;SDS011;5068;51.286;7.518;2022-12-18T03:38:55;3.75;;;1.15;;
10056;SDS011;5068;51.286;7.518;2022-12-18T03:40:31;3.15;;;1.48;;
10056;SDS011;5068;51.286;7.518;2022-12-18T03:42:13;3.40;;;1.10;;
10056;SDS011;5068;51.286;7.518;2022-12-18T03:43:59;3.85;;;1.15;;
10056;SDS011;5068;51.286;7.518;2022-12-18T03:45:48;3.88;;;1.38;;
10056;SDS011;5068;51.286;7.518;2022-12-18T03:47:28;4.18;;;1.17;;
10056;SDS011;5068;51.286;7.518;2022-12-18T03:49:11;2.72;;;1.00;;
10056;SDS011;5068;51.286;7.518;2022-12-18T03:50:59;2.92;;;1.35;;
10056;SDS011;5068;51.286;7.518;2022-12-18T03:52:41;4.03;;;1.48;;
10056;SDS011;5068;51.286;7.518;2022-12-18T03:54:32;3.30;;;1.25;;
10056;SDS011;5068;51.286;7.518;2022-12-18T03:56:15;4.05;;;1.30;;
10056;SDS011;5068;51.286;7.518;2022-12-18T03:57:51;4.07;;;1.15;;
10056;SDS011;5068;51.286;7.518;2022-12-18T03:59:26;2.97;;;1.13;;
10056;SDS011;5068;51.286;7.518;2022-12-18T04:01:03;3.55;;;1.30;;
10056;SDS011;5068;51.286;7.518;2022-12-18T04:02:41;3.25;;;1.40;;
10056;SDS011;5068;51.286;7.518;2022-12-18T04:04:27;3.90;;;1.40;;
10056;SDS011;5068;51.286;7.518;2022-12-18T04:06:04;3.92;;;1.23;;
10056;SDS011;5068;51.286;7.518;2022-12-18T04:07:42;5.38;;;2.08;;
10056;SDS011;5068;51.286;7.518;2022-12-18T04:09:17;5.25;;;1.60;;
10056;SDS011;5068;51.286;7.518;2022-12-18T04:10:53;2.63;;;1.30;;
10056;SDS011;5068;51.286;7.518;2022-12-18T04:12:26;3.65;;;1.45;;
10056;SDS011;5068;51.286;7.518;2022-12-18T04:14:02;4.72;;;1.27;;
10056;SDS011;5068;51.286;7.518;2022-12-18T04:15:39;4.00;;;1.15;;
10056;SDS011;5068;51.286;7.518;2022-12-18T04:17:17;3.88;;;1.67;;
10056;SDS011;5068;51.286;7.518;2022-12-18T04:18:50;3.08;;;1.13;;
10056;SDS011;5068;51.286;7.518;2022-12-18T04:20:25;4.10;;;1.58;;
10056;SDS011;5068;51.286;7.518;2022-12-18T04:21:58;2.88;;;1.20;;
10056;SDS011;5068;51.286;7.518;2022-12-18T04:23:31;3.95;;;1.52;;
10056;SDS011;5068;51.286;7.518;2022-12-18T04:25:06;3.15;;;1.20;;
10056;SDS011;5068;51.286;7.518;2022-12-18T04:26:43;4.15;;;1.45;;
10056;SDS011;5068;51.286;7.518;2022-12-18T04:28:20;3.28;;;1.35;;
10056;SDS011;5068;51.286;7.518;2022-12-18T04:29:54;4.70;;;1.65;;
10056;SDS011;5068;51.286;7.518;2022-12-18T04:31:27;3.47;;;1.42;;
10056;SDS011;5068;51.286;7.518;2022-12-18T04:33:02;4.15;;;1.48;;
10056;SDS011;5068;51.286;7.518;2022-12-18T04:34:35;2.97;;;0.98;;
10056;SDS011;5068;51.286;7.518;2022-12-18T04:36:09;3.95;;;1.15;;
10056;SDS011;5068;51.286;7.518;2022-12-18T04:37:44;2.50;;;1.25;;
10056;SDS011;5068;51.286;7.518;2022-12-18T04:39:19;3.38;;;1.38;;
10056;SDS011;5068;51.286;7.518;2022-12-18T04:40:54;4.40;;;1.55;;
10056;SDS011;5068;51.286;7.518;2022-12-18T04:42:30;4.95;;;1.60;;
10056;SDS011;5068;51.286;7.518;2022-12-18T04:44:03;4.57;;;1.48;;
10056;SDS011;5068;51.286;7.518;2022-12-18T04:45:37;3.05;;;1.30;;
10056;SDS011;5068;51.286;7.518;2022-12-18T04:47:12;3.65;;;1.05;;
10056;SDS011;5068;51.286;7.518;2022-12-18T04:48:45;2.50;;;1.10;;
10056;SDS011;5068;51.286;7.518;2022-12-18T04:50:19;4.20;;;1.67;;
10056;SDS011;5068;51.286;7.518;2022-12-18T04:51:52;3.00;;;1.00;;
10056;SDS011;5068;51.286;7.518;2022-12-18T04:53:25;4.28;;;1.60;;
10056;SDS011;5068;51.286;7.518;2022-12-18T04:54:58;2.45;;;1.15;;
10056;SDS011;5068;51.286;7.518;2022-12-18T04:56:32;2.28;;;1.02;;
10056;SDS011;5068;51.286;7.518;2022-12-18T04:58:08;4.85;;;1.63;;
10056;SDS011;5068;51.286;7.518;2022-12-18T04:59:41;3.72;;;1.40;;
10056;SDS011;5068;51.286;7.518;2022-12-18T05:01:15;3.85;;;1.48;;
10056;SDS011;5068;51.286;7.518;2022-12-18T05:02:51;3.85;;;1.30;;
10056;SDS011;5068;51.286;7.518;2022-12-18T05:04:24;3.50;;;1.17;;
10056;SDS011;5068;51.286;7.518;2022-12-18T05:05:57;4.20;;;1.73;;
10056;SDS011;5068;51.286;7.518;2022-12-18T05:07:30;3.40;;;1.25;;
10056;SDS011;5068;51.286;7.518;2022-12-18T05:09:04;3.40;;;1.40;;
10056;SDS011;5068;51.286;7.518;2022-12-18T05:10:37;3.45;;;1.30;;
10056;SDS011;5068;51.286;7.518;2022-12-18T05:12:12;3.22;;;1.30;;
10056;SDS011;5068;51.286;7.518;2022-12-18T05:13:44;4.18;;;1.60;;
10056;SDS011;5068;51.286;7.518;2022-12-18T05:15:18;3.25;;;1.10;;
10056;SDS011;5068;51.286;7.518;2022-12-18T05:16:50;3.40;;;1.20;;
10056;SDS011;5068;51.286;7.518;2022-12-18T05:18:32;3.63;;;1.40;;
10056;SDS011;5068;51.286;7.518;2022-12-18T05:21:41;2.35;;;0.80;;
10056;SDS011;5068;51.286;7.518;2022-12-18T05:23:14;1.63;;;0.70;;
10056;SDS011;5068;51.286;7.518;2022-12-18T05:24:47;2.45;;;1.02;;
10056;SDS011;5068;51.286;7.518;2022-12-18T05:26:21;3.65;;;1.50;;
10056;SDS011;5068;51.286;7.518;2022-12-18T05:27:54;2.33;;;0.80;;
10056;SDS011;5068;51.286;7.518;2022-12-18T05:29:27;2.58;;;0.93;;
10056;SDS011;5068;51.286;7.518;2022-12-18T05:31:00;2.55;;;1.13;;
10056;SDS011;5068;51.286;7.518;2022-12-18T05:32:36;4.25;;;1.55;;
10056;SDS011;5068;51.286;7.518;2022-12-18T05:34:13;3.85;;;1.38;;
10056;SDS011;5068;51.286;7.518;2022-12-18T05:35:49;1.67;;;0.73;;
10056;SDS011;5068;51.286;7.518;2022-12-18T05:37:23;2.45;;;0.82;;
10056;SDS011;5068;51.286;7.518;2022-12-18T05:38:56;3.17;;;1.55;;
10056;SDS011;5068;51.286;7.518;2022-12-18T05:40:29;3.55;;;1.27;;
10056;SDS011;5068;51.286;7.518;2022-12-18T05:42:03;3.70;;;1.40;;
10056;SDS011;5068;51.286;7.518;2022-12-18T05:43:37;3.00;;;0.95;;
10056;SDS011;5068;51.286;7.518;2022-12-18T05:45:12;4.13;;;1.30;;
10056;SDS011;5068;51.286;7.518;2022-12-18T05:46:44;2.42;;;1.17;;
10056;SDS011;5068;51.286;7.518;2022-12-18T05:48:18;3.78;;;1.25;;
10056;SDS011;5068;51.286;7.518;2022-12-18T05:49:53;4.53;;;1.30;;
10056;SDS011;5068;51.286;7.518;2022-12-18T05:51:26;2.40;;;1.23;;
10056;SDS011;5068;51.286;7.518;2022-12-18T05:52:59;3.42;;;1.45;;
10056;SDS011;5068;51.286;7.518;2022-12-18T05:54:32;4.28;;;1.30;;
10056;SDS011;5068;51.286;7.518;2022-12-18T05:56:06;4.93;;;1.23;;
10056;SDS011;5068;51.286;7.518;2022-12-18T05:57:41;3.25;;;1.02;;
10056;SDS011;5068;51.286;7.518;2022-12-18T05:59:14;2.92;;;1.08;;
10056;SDS011;5068;51.286;7.518;2022-12-18T06:00:48;2.92;;;1.13;;
10056;SDS011;5068;51.286;7.518;2022-12-18T06:02:21;4.05;;;1.60;;
10056;SDS011;5068;51.286;7.518;2022-12-18T06:03:55;2.88;;;1.05;;
10056;SDS011;5068;51.286;7.518;2022-12-18T06:05:29;2.75;;;1.10;;
10056;SDS011;5068;51.286;7.518;2022-12-18T06:07:07;4.80;;;1.40;;
10056;SDS011;5068;51.286;7.518;2022-12-18T06:08:40;3.13;;;1.15;;
10056;SDS011;5068;51.286;7.518;2022-12-18T06:10:17;2.22;;;1.00;;
10056;SDS011;5068;51.286;7.518;2022-12-18T06:11:50;3.00;;;0.93;;
10056;SDS011;5068;51.286;7.518;2022-12-18T06:13:24;3.47;;;1.10;;
10056;SDS011;5068;51.286;7.518;2022-12-18T06:14:57;4.28;;;1.60;;
10056;SDS011;5068;51.286;7.518;2022-12-18T06:16:30;2.65;;;1.20;;
10056;SDS011;5068;51.286;7.518;2022-12-18T06:18:04;3.45;;;1.15;;
10056;SDS011;5068;51.286;7.518;2022-12-18T06:19:38;4.85;;;1.60;;
10056;SDS011;5068;51.286;7.518;2022-12-18T06:21:12;3.17;;;1.20;;
10056;SDS011;5068;51.286;7.518;2022-12-18T06:22:46;2.47;;;1.00;;
10056;SDS011;5068;51.286;7.518;2022-12-18T06:24:20;2.80;;;1.02;;
10056;SDS011;5068;51.286;7.518;2022-12-18T06:25:53;4.13;;;1.10;;
10056;SDS011;5068;51.286;7.518;2022-12-18T06:27:26;3.45;;;1.23;;
10056;SDS011;5068;51.286;7.518;2022-12-18T06:28:59;3.60;;;1.30;;
10056;SDS011;5068;51.286;7.518;2022-12-18T06:32:08;2.40;;;0.93;;
10056;SDS011;5068;51.286;7.518;2022-12-18T06:33:41;2.55;;;1.13;;
10056;SDS011;5068;51.286;7.518;2022-12-18T06:35:15;2.35;;;0.95;;
10056;SDS011;5068;51.286;7.518;2022-12-18T06:36:50;3.92;;;1.13;;
10056;SDS011;5068;51.286;7.518;2022-12-18T06:38:23;4.68;;;1.20;;
10056;SDS011;5068;51.286;7.518;2022-12-18T06:39:56;3.00;;;1.30;;
10056;SDS011;5068;51.286;7.518;2022-12-18T06:41:29;2.92;;;1.25;;
10056;SDS011;5068;51.286;7.518;2022-12-18T06:43:02;3.88;;;1.17;;
10056;SDS011;5068;51.286;7.518;2022-12-18T06:44:35;3.08;;;1.23;;
10056;SDS011;5068;51.286;7.518;2022-12-18T06:46:09;3.08;;;1.30;;
10056;SDS011;5068;51.286;7.518;2022-12-18T06:47:42;3.63;;;1.38;;
10056;SDS011;5068;51.286;7.518;2022-12-18T06:49:15;3.15;;;1.20;;
10056;SDS011;5068;51.286;7.518;2022-12-18T06:50:49;2.63;;;1.25;;
10056;SDS011;5068;51.286;7.518;2022-12-18T06:52:23;2.38;;;0.98;;
10056;SDS011;5068;51.286;7.518;2022-12-18T06:53:57;4.13;;;1.40;;
10056;SDS011;5068;51.286;7.518;2022-12-18T06:55:30;3.05;;;1.17;;
10056;SDS011;5068;51.286;7.518;2022-12-18T06:57:03;3.15;;;1.10;;
10056;SDS011;5068;51.286;7.518;2022-12-18T06:58:36;3.83;;;1.10;;
10056;SDS011;5068;51.286;7.518;2022-12-18T07:00:09;3.13;;;1.13;;
10056;SDS011;5068;51.286;7.518;2022-12-18T07:01:46;4.63;;;1.30;;
10056;SDS011;5068;51.286;7.518;2022-12-18T07:03:20;3.67;;;1.48;;
10056;SDS011;5068;51.286;7.518;2022-12-18T07:04:53;2.92;;;1.08;;
10056;SDS011;5068;51.286;7.518;2022-12-18T07:06:26;3.42;;;1.20;;
10056;SDS011;5068;51.286;7.518;2022-12-18T07:08:01;2.85;;;1.17;;
10056;SDS011;5068;51.286;7.518;2022-12-18T07:09:34;3.40;;;1.27;;
10056;SDS011;5068;51.286;7.518;2022-12-18T07:11:07;4.55;;;1.33;;
10056;SDS011;5068;51.286;7.518;2022-12-18T07:12:40;4.13;;;1.50;;
10056;SDS011;5068;51.286;7.518;2022-12-18T07:14:13;2.83;;;1.30;;
10056;SDS011;5068;51.286;7.518;2022-12-18T07:15:47;3.53;;;1.20;;
10056;SDS011;5068;51.286;7.518;2022-12-18T07:17:20;3.13;;;1.13;;
10056;SDS011;5068;51.286;7.518;2022-12-18T07:18:54;5.38;;;1.25;;
10056;SDS011;5068;51.286;7.518;2022-12-18T07:20:28;5.93;;;1.50;;
10056;SDS011;5068;51.286;7.518;2022-12-18T07:22:01;4.50;;;1.15;;
10056;SDS011;5068;51.286;7.518;2022-12-18T07:23:36;3.67;;;1.23;;
10056;SDS011;5068;51.286;7.518;2022-12-18T07:25:10;4.18;;;1.38;;
10056;SDS011;5068;51.286;7.518;2022-12-18T07:26:45;3.75;;;1.35;;
10056;SDS011;5068;51.286;7.518;2022-12-18T07:28:18;4.32;;;1.45;;
10056;SDS011;5068;51.286;7.518;2022-12-18T07:29:52;4.35;;;1.85;;
10056;SDS011;5068;51.286;7.518;2022-12-18T07:31:26;3.80;;;1.45;;
10056;SDS011;5068;51.286;7.518;2022-12-18T07:33:00;4.07;;;1.40;;
10056;SDS011;5068;51.286;7.518;2022-12-18T07:34:33;4.85;;;2.05;;
10056;SDS011;5068;51.286;7.518;2022-12-18T07:36:07;3.95;;;1.33;;
10056;SDS011;5068;51.286;7.518;2022-12-18T07:37:42;5.28;;;1.60;;
10056;SDS011;5068;51.286;7.518;2022-12-18T07:39:17;4.40;;;1.52;;
10056;SDS011;5068;51.286;7.518;2022-12-18T07:40:50;4.75;;;1.48;;
10056;SDS011;5068;51.286;7.518;2022-12-18T07:42:23;5.63;;;1.60;;
10056;SDS011;5068;51.286;7.518;2022-12-18T07:44:03;4.47;;;1.63;;
10056;SDS011;5068;51.286;7.518;2022-12-18T07:45:37;4.82;;;1.55;;
10056;SDS011;5068;51.286;7.518;2022-12-18T07:47:10;4.25;;;1.55;;
10056;SDS011;5068;51.286;7.518;2022-12-18T07:48:43;3.88;;;1.48;;
10056;SDS011;5068;51.286;7.518;2022-12-18T07:50:20;4.63;;;1.63;;
10056;SDS011;5068;51.286;7.518;2022-12-18T07:51:55;3.40;;;1.45;;
10056;SDS011;5068;51.286;7.518;2022-12-18T07:53:29;4.55;;;1.50;;
10056;SDS011;5068;51.286;7.518;2022-12-18T07:55:04;4.72;;;1.70;;
10056;SDS011;5068;51.286;7.518;2022-12-18T07:56:39;3.88;;;1.17;;
10056;SDS011;5068;51.286;7.518;2022-12-18T07:58:12;2.85;;;1.25;;
10056;SDS011;5068;51.286;7.518;2022-12-18T07:59:45;6.35;;;1.55;;
10056;SDS011;5068;51.286;7.518;2022-12-18T08:01:18;3.78;;;1.55;;
10056;SDS011;5068;51.286;7.518;2022-12-18T08:02:52;5.55;;;1.55;;
10056;SDS011;5068;51.286;7.518;2022-12-18T08:04:26;4.28;;;1.35;;
10056;SDS011;5068;51.286;7.518;2022-12-18T08:06:00;3.58;;;1.25;;
10056;SDS011;5068;51.286;7.518;2022-12-18T08:07:34;4.75;;;1.50;;
10056;SDS011;5068;51.286;7.518;2022-12-18T08:09:07;4.60;;;1.77;;
10056;SDS011;5068;51.286;7.518;2022-12-18T08:10:43;4.03;;;1.48;;
10056;SDS011;5068;51.286;7.518;2022-12-18T08:12:18;5.53;;;1.70;;
10056;SDS011;5068;51.286;7.518;2022-12-18T08:13:52;4.45;;;1.67;;
10056;SDS011;5068;51.286;7.518;2022-12-18T08:15:26;4.20;;;1.75;;
10056;SDS011;5068;51.286;7.518;2022-12-18T08:16:59;4.70;;;1.50;;
10056;SDS011;5068;51.286;7.518;2022-12-18T08:18:33;6.28;;;1.60;;
10056;SDS011;5068;51.286;7.518;2022-12-18T08:20:08;5.28;;;1.77;;
10056;SDS011;5068;51.286;7.518;2022-12-18T08:21:43;3.58;;;1.20;;
10056;SDS011;5068;51.286;7.518;2022-12-18T08:23:16;3.78;;;1.77;;
10056;SDS011;5068;51.286;7.518;2022-12-18T08:24:49;3.75;;;1.63;;
10056;SDS011;5068;51.286;7.518;2022-12-18T08:26:25;3.72;;;1.85;;
10056;SDS011;5068;51.286;7.518;2022-12-18T08:28:00;4.20;;;1.83;;
10056;SDS011;5068;51.286;7.518;2022-12-18T08:29:33;4.70;;;1.55;;
10056;SDS011;5068;51.286;7.518;2022-12-18T08:31:06;4.53;;;1.92;;
10056;SDS011;5068;51.286;7.518;2022-12-18T08:32:40;4.25;;;1.83;;
10056;SDS011;5068;51.286;7.518;2022-12-18T08:34:16;4.25;;;1.20;;
10056;SDS011;5068;51.286;7.518;2022-12-18T08:35:50;5.95;;;2.60;;
10056;SDS011;5068;51.286;7.518;2022-12-18T08:37:23;4.53;;;1.80;;
10056;SDS011;5068;51.286;7.518;2022-12-18T08:38:56;4.75;;;2.22;;
10056;SDS011;5068;51.286;7.518;2022-12-18T08:40:30;4.32;;;2.10;;
10056;SDS011;5068;51.286;7.518;2022-12-18T08:42:05;6.57;;;2.05;;
10056;SDS011;5068;51.286;7.518;2022-12-18T08:43:56;3.92;;;1.98;;
10056;SDS011;5068;51.286;7.518;2022-12-18T08:45:47;5.60;;;2.90;;
10056;SDS011;5068;51.286;7.518;2022-12-18T08:47:20;4.15;;;1.67;;
10056;SDS011;5068;51.286;7.518;2022-12-18T08:48:54;5.30;;;1.77;;
10056;SDS011;5068;51.286;7.518;2022-12-18T08:50:27;4.65;;;1.90;;
10056;SDS011;5068;51.286;7.518;2022-12-18T08:52:00;4.60;;;1.52;;
10056;SDS011;5068;51.286;7.518;2022-12-18T08:53:34;5.38;;;2.22;;
10056;SDS011;5068;51.286;7.518;2022-12-18T08:55:09;4.05;;;1.88;;
10056;SDS011;5068;51.286;7.518;2022-12-18T08:56:42;4.43;;;2.10;;
10056;SDS011;5068;51.286;7.518;2022-12-18T08:58:17;6.70;;;3.78;;
10056;SDS011;5068;51.286;7.518;2022-12-18T08:59:51;4.47;;;1.92;;
10056;SDS011;5068;51.286;7.518;2022-12-18T09:01:24;4.63;;;1.80;;
10056;SDS011;5068;51.286;7.518;2022-12-18T09:02:57;3.75;;;1.60;;
10056;SDS011;5068;51.286;7.518;2022-12-18T09:04:31;3.67;;;1.63;;
10056;SDS011;5068;51.286;7.518;2022-12-18T09:06:04;6.57;;;1.85;;
10056;SDS011;5068;51.286;7.518;2022-12-18T09:07:38;4.43;;;2.00;;
10056;SDS011;5068;51.286;7.518;2022-12-18T09:09:12;7.32;;;2.92;;
10056;SDS011;5068;51.286;7.518;2022-12-18T09:10:47;4.43;;;1.95;;
10056;SDS011;5068;51.286;7.518;2022-12-18T09:12:22;4.82;;;2.13;;
10056;SDS011;5068;51.286;7.518;2022-12-18T09:13:57;6.28;;;2.15;;
10056;SDS011;5068;51.286;7.518;2022-12-18T09:15:32;5.90;;;2.78;;
10056;SDS011;5068;51.286;7.518;2022-12-18T09:17:05;7.32;;;3.15;;
10056;SDS011;5068;51.286;7.518;2022-12-18T09:18:39;5.03;;;2.33;;
10056;SDS011;5068;51.286;7.518;2022-12-18T09:20:13;6.03;;;2.30;;
10056;SDS011;5068;51.286;7.518;2022-12-18T09:21:47;5.93;;;2.53;;
10056;SDS011;5068;51.286;7.518;2022-12-18T09:23:20;6.53;;;3.55;;
10056;SDS011;5068;51.286;7.518;2022-12-18T09:24:54;5.78;;;3.20;;
10056;SDS011;5068;51.286;7.518;2022-12-18T09:26:27;6.55;;;3.83;;
10056;SDS011;5068;51.286;7.518;2022-12-18T09:28:00;7.38;;;2.55;;
10056;SDS011;5068;51.286;7.518;2022-12-18T09:29:36;6.00;;;3.03;;
10056;SDS011;5068;51.286;7.518;2022-12-18T09:31:10;4.43;;;2.50;;
10056;SDS011;5068;51.286;7.518;2022-12-18T09:32:45;4.57;;;1.95;;
10056;SDS011;5068;51.286;7.518;2022-12-18T09:34:18;4.70;;;2.10;;
10056;SDS011;5068;51.286;7.518;2022-12-18T09:35:53;5.05;;;2.65;;
10056;SDS011;5068;51.286;7.518;2022-12-18T09:37:26;6.07;;;3.05;;
10056;SDS011;5068;51.286;7.518;2022-12-18T09:38:59;3.97;;;1.88;;
10056;SDS011;5068;51.286;7.518;2022-12-18T09:40:40;5.63;;;2.25;;
10056;SDS011;5068;51.286;7.518;2022-12-18T09:42:17;4.78;;;2.10;;
10056;SDS011;5068;51.286;7.518;2022-12-18T09:43:56;5.97;;;2.80;;
10056;SDS011;5068;51.286;7.518;2022-12-18T09:45:37;5.60;;;2.30;;
10056;SDS011;5068;51.286;7.518;2022-12-18T09:47:17;7.53;;;3.28;;
10056;SDS011;5068;51.286;7.518;2022-12-18T09:48:57;4.22;;;2.20;;
10056;SDS011;5068;51.286;7.518;2022-12-18T09:50:36;4.30;;;1.95;;
10056;SDS011;5068;51.286;7.518;2022-12-18T09:52:15;5.68;;;2.67;;
10056;SDS011;5068;51.286;7.518;2022-12-18T09:53:55;6.55;;;3.33;;
10056;SDS011;5068;51.286;7.518;2022-12-18T09:55:34;20.13;;;8.10;;